createdAt,value
2022-11-07T00:04:35.393Z,100221.75
2022-11-07T00:14:36.785Z,100240.78
2022-11-07T00:24:38.160Z,100244.28
2022-11-07T00:34:39.527Z,100239.03
2022-11-07T00:44:40.967Z,100241.63
2022-11-07T00:54:42.398Z,100251.13
2022-11-07T01:05:02.615Z,100264.97
2022-11-07T01:15:05.129Z,100273.59
2022-11-07T01:25:06.953Z,100268.34
2022-11-07T01:35:08.401Z,100273.47
2022-11-07T01:45:09.763Z,100268.16
2022-11-07T01:55:11.194Z,100261.13
2022-11-07T02:05:12.552Z,100267.97
2022-11-07T02:15:13.889Z,100255.63
2022-11-07T02:25:15.144Z,100262.47
2022-11-07T02:35:16.534Z,100251.91
2022-11-07T02:45:17.892Z,100253.56
2022-11-07T02:55:19.282Z,100262.47
2022-11-07T03:05:20.725Z,100255.47
2022-11-07T03:15:21.982Z,100259.75
2022-11-07T03:25:23.377Z,100268.41
2022-11-07T03:35:24.777Z,100268.38
2022-11-07T03:45:26.037Z,100276.22
2022-11-07T03:55:27.261Z,100287.63
2022-11-07T04:05:28.633Z,100290.91
2022-11-07T04:15:48.860Z,100310.22
2022-11-07T04:26:08.774Z,100321.56
2022-11-07T04:36:10.192Z,100318.88
2022-11-07T04:46:11.543Z,100324.97
2022-11-07T04:56:12.904Z,100313.63
2022-11-07T05:06:14.294Z,100311.88
2022-11-07T05:16:17.258Z,100317.94
2022-11-07T05:26:18.872Z,100309.25
2022-11-07T05:36:20.230Z,100319.72
2022-11-07T05:46:21.627Z,100313.63
2022-11-07T05:56:22.991Z,100327.41
2022-11-07T06:06:24.360Z,100337.13
2022-11-07T06:16:25.754Z,100351.03
2022-11-07T06:26:27.158Z,100354.53
2022-11-07T06:36:28.538Z,100350.88
2022-11-07T06:46:29.872Z,100371.69
2022-11-07T06:56:31.485Z,100376.78
2022-11-07T07:06:32.880Z,100386.22
2022-11-07T07:16:34.239Z,100387.91
2022-11-07T07:26:35.622Z,100394.56
2022-11-07T07:36:36.984Z,100396.00
2022-11-07T07:46:38.376Z,100394.13
2022-11-07T07:56:39.676Z,100401.09
2022-11-07T08:06:40.974Z,100393.81
2022-11-07T08:16:42.326Z,100389.22
2022-11-07T08:26:44.305Z,100388.66
2022-11-07T08:36:45.814Z,100392.81
2022-11-07T08:46:47.158Z,100393.34
2022-11-07T08:56:48.459Z,100388.00
2022-11-07T09:06:49.761Z,100400.28
2022-11-07T09:16:51.155Z,100405.69
2022-11-07T09:26:52.541Z,100403.16
2022-11-07T09:36:53.920Z,100404.25
2022-11-07T09:46:55.272Z,100412.59
2022-11-07T09:56:58.011Z,100413.56
2022-11-07T10:06:59.355Z,100421.75
2022-11-07T10:17:00.776Z,100412.88
2022-11-07T10:27:02.350Z,100415.53
2022-11-07T10:37:03.712Z,100427.28
2022-11-07T10:47:05.887Z,100415.38
2022-11-07T10:57:07.334Z,100397.06
2022-11-07T11:07:08.826Z,100381.03
2022-11-07T11:17:10.237Z,100376.75
2022-11-07T11:27:12.060Z,100362.56
2022-11-07T11:37:13.417Z,100336.78
2022-11-07T11:47:14.805Z,100335.59
2022-11-07T11:57:16.236Z,100341.53
2022-11-07T12:07:17.643Z,100332.94
2022-11-07T12:17:19.002Z,100337.22
2022-11-07T12:27:25.562Z,100323.69
2022-11-07T12:37:28.297Z,100333.16
2022-11-07T12:47:29.629Z,100333.78
2022-11-07T12:57:31.001Z,100320.91
2022-11-07T13:07:32.263Z,100319.75
2022-11-07T13:17:33.623Z,100317.28
2022-11-07T13:27:35.153Z,100329.19
2022-11-07T13:37:36.416Z,100320.56
2022-11-07T13:47:37.798Z,100321.63
2022-11-07T13:57:39.158Z,100326.69
2022-11-07T14:07:40.416Z,100330.59
2022-11-07T14:17:41.705Z,100330.38
2022-11-07T14:27:43.067Z,100326.19
2022-11-07T14:37:44.778Z,100334.28
2022-11-07T14:47:46.163Z,100333.31
2022-11-07T14:57:47.422Z,100341.28
2022-11-07T15:07:48.798Z,100328.81
2022-11-07T15:17:50.180Z,100326.53
2022-11-07T15:27:51.612Z,100326.81
2022-11-07T15:37:53.341Z,100327.00
2022-11-07T15:47:55.248Z,100334.25
2022-11-07T15:57:57.397Z,100335.00
2022-11-07T16:07:59.539Z,100332.16
2022-11-07T16:18:01.553Z,100342.53
2022-11-07T16:28:03.661Z,100337.69
2022-11-07T16:38:05.028Z,100331.06
2022-11-07T16:48:06.469Z,100345.84
2022-11-07T16:58:07.818Z,100334.44
2022-11-07T17:08:09.272Z,100346.91
2022-11-07T17:18:10.631Z,100344.66
2022-11-07T17:28:12.153Z,100350.16
2022-11-07T17:38:14.496Z,100360.00
2022-11-07T17:48:16.332Z,100361.88
2022-11-07T17:58:17.935Z,100358.59
2022-11-07T18:08:45.907Z,100363.00
2022-11-07T18:18:40.646Z,100351.91
2022-11-07T18:28:42.868Z,100350.50
2022-11-07T18:38:44.892Z,100349.00
2022-11-07T18:48:46.163Z,100347.88
2022-11-07T18:58:47.560Z,100344.94
2022-11-07T19:08:49.139Z,100346.16
2022-11-07T19:18:50.544Z,100357.34
2022-11-07T19:28:54.184Z,100353.47
2022-11-07T19:38:55.511Z,100364.13
2022-11-07T19:48:57.207Z,100363.50
2022-11-07T19:58:58.635Z,100368.13
2022-11-07T20:08:59.990Z,100371.44
2022-11-07T20:19:01.279Z,100367.75
2022-11-07T20:29:02.761Z,100364.03
2022-11-07T20:39:04.123Z,100356.00
2022-11-07T20:49:05.485Z,100367.97
2022-11-07T20:59:07.120Z,100364.22
2022-11-07T21:09:08.422Z,100364.94
2022-11-07T21:19:09.796Z,100344.06
2022-11-07T21:29:11.174Z,100338.28
2022-11-07T21:39:14.316Z,100328.16
2022-11-07T21:49:15.551Z,100331.03
2022-11-07T21:59:18.759Z,100320.72
2022-11-07T22:09:21.056Z,100305.06
2022-11-07T22:19:22.414Z,100305.06
2022-11-07T22:29:23.899Z,100300.97
2022-11-07T22:39:25.299Z,100291.88
2022-11-07T22:49:26.622Z,100292.34
2022-11-07T22:59:27.999Z,100285.69
2022-11-07T23:09:29.346Z,100272.03
2022-11-07T23:19:30.750Z,100275.69
2022-11-07T23:29:32.169Z,100279.28
2022-11-07T23:39:33.552Z,100277.78
2022-11-07T23:49:53.796Z,100269.22
